createdAt,value
2023-08-10T00:00:31.945Z,3.80
2023-08-10T00:03:00.361Z,3.60
2023-08-10T00:05:28.685Z,3.73
2023-08-10T00:07:56.773Z,3.73
2023-08-10T00:10:25.022Z,3.60
2023-08-10T00:12:53.117Z,3.10
2023-08-10T00:15:22.756Z,3.77
2023-08-10T00:17:51.268Z,3.83
2023-08-10T00:20:19.546Z,3.60
2023-08-10T00:22:47.618Z,3.97
2023-08-10T00:25:15.827Z,3.70
2023-08-10T00:27:43.936Z,3.67
2023-08-10T00:30:12.402Z,4.20
2023-08-10T00:32:42.900Z,4.20
2023-08-10T00:35:11.578Z,4.10
2023-08-10T00:37:39.802Z,4.20
2023-08-10T00:40:10.383Z,3.97
2023-08-10T00:42:38.736Z,3.80
2023-08-10T00:45:07.940Z,4.00
2023-08-10T00:47:36.153Z,3.80
2023-08-10T00:50:06.622Z,4.40
2023-08-10T00:52:35.491Z,4.07
2023-08-10T00:55:03.647Z,4.57
2023-08-10T00:57:32.437Z,4.60
2023-08-10T01:00:01.322Z,4.10
2023-08-10T01:02:30.125Z,4.57
2023-08-10T01:04:58.397Z,6.40
2023-08-10T01:07:36.709Z,8.00
2023-08-10T01:10:12.800Z,5.40
2023-08-10T01:12:47.018Z,4.70
2023-08-10T01:15:19.396Z,4.30
2023-08-10T01:17:53.396Z,4.47
2023-08-10T01:20:23.030Z,5.00
2023-08-10T01:22:57.546Z,4.90
2023-08-10T01:25:27.919Z,4.80
2023-08-10T01:27:56.824Z,5.00
2023-08-10T01:30:25.782Z,4.90
2023-08-10T01:32:54.153Z,5.20
2023-08-10T01:35:22.571Z,5.40
2023-08-10T01:37:50.593Z,5.40
2023-08-10T01:40:18.783Z,5.20
2023-08-10T01:42:48.207Z,6.10
2023-08-10T01:45:16.477Z,6.00
2023-08-10T01:47:54.180Z,5.37
2023-08-10T01:50:23.762Z,5.23
2023-08-10T01:52:56.254Z,5.73
2023-08-10T01:55:24.902Z,6.37
2023-08-10T01:57:54.435Z,6.00
2023-08-10T02:00:22.593Z,5.90
2023-08-10T02:02:50.784Z,6.17
2023-08-10T02:05:18.972Z,5.77
2023-08-10T02:07:50.315Z,6.63
2023-08-10T02:10:19.051Z,6.70
2023-08-10T02:12:47.100Z,6.40
2023-08-10T02:15:16.858Z,6.37
2023-08-10T02:17:46.079Z,6.03
2023-08-10T02:20:14.856Z,6.20
2023-08-10T02:22:48.358Z,6.70
2023-08-10T02:25:16.939Z,6.70
2023-08-10T02:27:45.427Z,6.07
2023-08-10T02:30:14.224Z,5.47
2023-08-10T02:32:43.788Z,6.43
2023-08-10T02:35:12.009Z,6.40
2023-08-10T02:37:40.296Z,6.97
2023-08-10T02:40:11.374Z,6.60
2023-08-10T02:42:40.452Z,6.77
2023-08-10T02:45:09.835Z,5.90
2023-08-10T02:47:38.016Z,7.27
2023-08-10T02:50:08.705Z,7.00
2023-08-10T02:52:38.864Z,6.87
2023-08-10T02:55:08.291Z,6.90
2023-08-10T02:57:36.772Z,7.30
2023-08-10T03:00:07.815Z,6.70
2023-08-10T03:02:36.206Z,6.63
2023-08-10T03:05:10.406Z,8.13
2023-08-10T03:07:38.567Z,7.33
2023-08-10T03:10:10.757Z,7.50
2023-08-10T03:12:40.514Z,7.80
2023-08-10T03:15:12.742Z,7.37
2023-08-10T03:17:42.110Z,8.63
2023-08-10T03:20:17.862Z,7.10
2023-08-10T03:22:47.604Z,7.63
2023-08-10T03:25:16.711Z,8.30
2023-08-10T03:27:45.670Z,7.93
2023-08-10T03:30:16.990Z,8.00
2023-08-10T03:32:45.300Z,8.33
2023-08-10T03:35:16.193Z,9.17
2023-08-10T03:37:44.387Z,8.67
2023-08-10T03:40:13.509Z,8.17
2023-08-10T03:42:42.079Z,8.87
2023-08-10T03:45:12.062Z,9.47
2023-08-10T03:47:40.254Z,8.40
2023-08-10T03:50:09.497Z,8.00
2023-08-10T03:52:38.898Z,8.67
2023-08-10T03:55:08.008Z,9.43
2023-08-10T03:57:36.061Z,8.63
2023-08-10T04:00:05.261Z,9.63
2023-08-10T04:02:45.211Z,10.00
2023-08-10T04:05:19.129Z,10.47
2023-08-10T04:07:49.004Z,9.70
2023-08-10T04:10:17.240Z,9.57
2023-08-10T04:12:45.871Z,9.27
2023-08-10T04:15:14.121Z,9.60
2023-08-10T04:17:42.720Z,9.40
2023-08-10T04:20:11.721Z,9.33
2023-08-10T04:22:39.989Z,9.87
2023-08-10T04:25:09.918Z,9.93
2023-08-10T04:27:38.412Z,9.77
2023-08-10T04:30:09.944Z,9.30
2023-08-10T04:32:38.388Z,9.60
2023-08-10T04:35:07.260Z,9.43
2023-08-10T04:37:36.060Z,9.10
2023-08-10T04:40:08.911Z,9.57
2023-08-10T04:42:41.176Z,9.83
2023-08-10T04:45:11.526Z,10.80
2023-08-10T04:47:40.165Z,9.57
2023-08-10T04:50:09.205Z,9.60
2023-08-10T04:52:37.720Z,10.07
2023-08-10T04:55:06.443Z,10.00
2023-08-10T04:57:34.582Z,10.13
2023-08-10T05:00:10.202Z,10.27
2023-08-10T05:02:39.438Z,9.67
2023-08-10T05:05:09.151Z,11.07
2023-08-10T05:07:38.395Z,9.40
2023-08-10T05:10:09.244Z,10.20
2023-08-10T05:12:39.439Z,9.63
2023-08-10T05:15:11.285Z,9.63
2023-08-10T05:17:40.329Z,10.10
2023-08-10T05:20:12.008Z,10.67
2023-08-10T05:22:41.753Z,10.60
2023-08-10T05:25:10.639Z,10.43
2023-08-10T05:27:39.534Z,9.47
2023-08-10T05:30:13.251Z,9.97
2023-08-10T05:32:45.225Z,9.60
2023-08-10T05:35:14.056Z,9.03
2023-08-10T05:37:42.180Z,9.47
2023-08-10T05:40:13.014Z,8.93
2023-08-10T05:42:43.016Z,8.43
2023-08-10T05:45:16.855Z,8.10
2023-08-10T05:47:46.650Z,6.30
2023-08-10T05:50:15.144Z,8.17
2023-08-10T05:52:43.921Z,7.47
2023-08-10T05:55:12.401Z,9.53
2023-08-10T05:57:40.754Z,8.40
2023-08-10T06:00:10.985Z,8.80
2023-08-10T06:02:44.135Z,8.10
2023-08-10T06:05:13.907Z,9.10
2023-08-10T06:07:42.257Z,7.87
2023-08-10T06:10:10.786Z,6.80
2023-08-10T06:12:39.010Z,10.90
2023-08-10T06:15:07.869Z,6.73
2023-08-10T06:17:35.998Z,6.03
2023-08-10T06:20:10.857Z,5.80
2023-08-10T06:22:40.373Z,10.80
2023-08-10T06:25:09.593Z,5.90
2023-08-10T06:27:38.517Z,5.23
2023-08-10T06:30:08.098Z,5.10
2023-08-10T06:32:36.738Z,7.60
2023-08-10T06:35:06.967Z,5.00
2023-08-10T06:37:35.049Z,4.27
2023-08-10T06:40:08.147Z,5.20
2023-08-10T06:42:36.428Z,4.47
2023-08-10T06:45:11.636Z,3.83
2023-08-10T06:47:39.995Z,3.10
2023-08-10T06:50:10.199Z,3.70
2023-08-10T06:52:38.407Z,2.47
2023-08-10T06:55:07.507Z,3.03
2023-08-10T06:57:37.249Z,3.47
2023-08-10T07:02:39.448Z,2.27
2023-08-10T07:05:11.425Z,144.67
2023-08-10T07:07:39.572Z,473.17
2023-08-10T07:10:10.304Z,679.43
2023-08-10T07:12:38.398Z,863.93
2023-08-10T07:15:09.534Z,932.30
2023-08-10T07:17:38.162Z,995.20
2023-08-10T07:20:07.485Z,999.90
2023-08-10T07:22:40.475Z,999.90
2023-08-10T07:25:09.452Z,999.90
2023-08-10T07:27:38.007Z,999.90
2023-08-10T07:30:07.337Z,999.90
2023-08-10T07:32:35.421Z,999.90
2023-08-10T07:35:03.921Z,999.90
2023-08-10T07:37:32.142Z,999.90
2023-08-10T07:40:01.656Z,999.90
2023-08-10T07:42:29.724Z,999.90
2023-08-10T07:44:57.812Z,999.90
2023-08-10T07:47:25.966Z,999.90
2023-08-10T07:49:54.373Z,999.90
2023-08-10T07:52:22.437Z,999.90
2023-08-10T07:54:50.483Z,999.90
2023-08-10T07:57:19.866Z,999.90
2023-08-10T07:59:48.361Z,999.90
2023-08-10T08:02:16.496Z,999.90
2023-08-10T08:04:44.621Z,999.90
2023-08-10T08:07:12.922Z,999.90
2023-08-10T08:09:41.220Z,994.17
2023-08-10T08:12:09.253Z,999.90
2023-08-10T08:14:38.718Z,909.07
2023-08-10T08:17:06.977Z,783.70
2023-08-10T08:19:37.377Z,807.60
2023-08-10T08:22:05.879Z,882.23
2023-08-10T08:24:34.250Z,817.63
2023-08-10T08:27:02.389Z,774.67
2023-08-10T08:29:30.553Z,832.63
2023-08-10T08:32:00.335Z,634.03
2023-08-10T08:34:28.473Z,775.47
2023-08-10T08:36:56.516Z,846.70
2023-08-10T08:39:24.598Z,880.33
2023-08-10T08:41:53.035Z,855.37
2023-08-10T08:44:21.483Z,774.30
2023-08-10T08:46:50.765Z,566.77
2023-08-10T08:49:20.712Z,406.83
2023-08-10T08:51:49.666Z,401.93
2023-08-10T08:54:19.383Z,469.67
2023-08-10T08:56:47.446Z,251.30
2023-08-10T08:59:15.572Z,220.63
2023-08-10T09:01:43.919Z,225.93
2023-08-10T09:04:12.279Z,248.60
2023-08-10T09:06:41.926Z,261.37
2023-08-10T09:09:10.064Z,379.90
2023-08-10T09:11:38.078Z,247.00
2023-08-10T09:14:10.117Z,271.63
2023-08-10T09:16:40.116Z,288.20
2023-08-10T09:19:13.284Z,248.60
2023-08-10T09:21:42.824Z,103.07
2023-08-10T09:24:12.040Z,154.60
2023-08-10T09:26:42.166Z,163.67
2023-08-10T09:29:10.440Z,140.30
2023-08-10T09:31:44.131Z,147.30
2023-08-10T09:34:14.857Z,80.80
2023-08-10T09:36:54.776Z,102.43
2023-08-10T09:39:22.840Z,143.70
2023-08-10T09:41:56.329Z,120.50
2023-08-10T09:44:24.471Z,125.73
2023-08-10T09:46:59.214Z,79.30
2023-08-10T09:49:27.355Z,91.37
2023-08-10T09:52:00.051Z,133.37
2023-08-10T09:54:28.990Z,109.90
2023-08-10T09:56:58.160Z,103.87
2023-08-10T09:59:26.665Z,108.47
2023-08-10T10:01:55.182Z,100.53
2023-08-10T10:04:24.727Z,177.17
2023-08-10T10:06:54.599Z,166.67
2023-08-10T10:09:25.859Z,138.03
2023-08-10T10:11:55.598Z,176.40
2023-08-10T10:14:23.743Z,165.30
2023-08-10T10:16:53.549Z,238.73
2023-08-10T10:19:21.983Z,260.23
2023-08-10T10:21:50.937Z,205.30
2023-08-10T10:24:20.598Z,179.37
2023-08-10T10:27:01.535Z,262.83
2023-08-10T10:29:41.345Z,149.60
2023-08-10T10:32:15.178Z,162.33
2023-08-10T10:34:44.318Z,130.57
2023-08-10T10:37:15.826Z,762.83
2023-08-10T10:39:45.852Z,901.67
2023-08-10T10:42:19.484Z,766.70
2023-08-10T10:45:01.649Z,916.93
2023-08-10T10:47:37.878Z,852.83
2023-08-10T10:50:17.114Z,915.80
2023-08-10T10:52:55.299Z,800.33
2023-08-10T10:55:24.517Z,866.97
2023-08-10T10:57:54.553Z,978.33
2023-08-10T11:00:25.236Z,956.37
2023-08-10T11:02:54.025Z,961.13
2023-08-10T11:05:22.479Z,948.53
2023-08-10T11:07:51.962Z,970.33
2023-08-10T11:10:22.913Z,980.40
2023-08-10T11:12:55.296Z,991.13
2023-08-10T11:15:24.112Z,921.20
2023-08-10T11:17:55.741Z,832.53
2023-08-10T11:20:24.356Z,940.03
2023-08-10T11:22:53.808Z,956.97
2023-08-10T11:25:24.135Z,875.57
2023-08-10T11:27:57.672Z,866.27
2023-08-10T11:30:26.653Z,785.37
2023-08-10T11:32:56.327Z,940.07
2023-08-10T11:35:26.340Z,782.63
2023-08-10T11:37:55.261Z,793.40
2023-08-10T11:40:24.865Z,771.83
2023-08-10T11:43:05.844Z,794.30
2023-08-10T11:45:34.393Z,788.40
2023-08-10T11:48:04.533Z,878.13
2023-08-10T11:50:33.566Z,860.13
2023-08-10T11:53:11.937Z,941.07
2023-08-10T11:55:44.526Z,689.80
2023-08-10T11:58:16.807Z,820.63
2023-08-10T12:00:50.633Z,944.97
2023-08-10T12:03:24.465Z,818.47
2023-08-10T12:05:56.065Z,839.73
2023-08-10T12:08:27.403Z,929.63
2023-08-10T12:11:02.430Z,880.13
2023-08-10T12:13:32.764Z,849.87
2023-08-10T12:16:04.623Z,936.00
2023-08-10T12:18:32.938Z,854.83
2023-08-10T12:21:01.171Z,908.70
2023-08-10T12:23:29.320Z,918.47
2023-08-10T12:25:57.326Z,967.27
2023-08-10T12:28:26.541Z,993.50
2023-08-10T12:30:56.028Z,947.57
2023-08-10T12:33:24.801Z,999.90
2023-08-10T12:35:53.358Z,992.50
2023-08-10T12:38:21.588Z,925.20
2023-08-10T12:40:49.722Z,925.63
2023-08-10T12:43:17.811Z,904.67
2023-08-10T12:45:46.908Z,947.03
2023-08-10T12:48:16.388Z,999.90
2023-08-10T12:50:44.507Z,958.23
2023-08-10T12:53:12.712Z,965.20
2023-08-10T12:55:40.832Z,952.10
2023-08-10T12:58:12.484Z,950.27
2023-08-10T13:00:40.594Z,894.10
2023-08-10T13:03:09.273Z,976.53
2023-08-10T13:05:38.890Z,968.23
2023-08-10T13:08:07.491Z,957.50
2023-08-10T13:10:35.691Z,918.20
2023-08-10T13:13:04.103Z,949.07
2023-08-10T13:15:32.274Z,871.07
2023-08-10T13:18:00.355Z,878.37
2023-08-10T13:20:28.637Z,835.87
2023-08-10T13:22:58.162Z,829.90
2023-08-10T13:25:26.234Z,905.10
2023-08-10T13:27:54.279Z,883.77
2023-08-10T13:30:22.359Z,892.90
2023-08-10T13:32:50.477Z,846.37
2023-08-10T13:35:18.797Z,806.07
2023-08-10T13:37:46.859Z,903.17
2023-08-10T13:40:16.318Z,910.17
2023-08-10T13:42:44.567Z,885.30
2023-08-10T13:45:12.743Z,876.83
2023-08-10T13:47:40.891Z,865.17
2023-08-10T13:50:10.486Z,855.27
2023-08-10T13:52:38.510Z,894.13
2023-08-10T13:55:08.182Z,896.00
2023-08-10T13:57:37.634Z,861.47
2023-08-10T14:00:09.064Z,904.00
2023-08-10T14:02:37.734Z,891.33
2023-08-10T14:05:07.131Z,908.10
2023-08-10T14:07:35.262Z,942.13
2023-08-10T14:10:03.302Z,921.47
2023-08-10T14:12:31.300Z,946.77
2023-08-10T14:15:00.804Z,925.53
2023-08-10T14:17:28.973Z,945.47
2023-08-10T14:19:57.081Z,977.33
2023-08-10T14:22:25.136Z,999.90
2023-08-10T14:24:53.454Z,924.63
2023-08-10T14:27:24.364Z,928.17
2023-08-10T14:29:52.667Z,928.67
2023-08-10T14:32:22.545Z,948.03
2023-08-10T14:34:51.240Z,990.03
2023-08-10T14:37:19.313Z,949.60
2023-08-10T14:39:47.348Z,909.60
2023-08-10T14:42:15.462Z,802.73
2023-08-10T14:44:43.526Z,867.93
2023-08-10T14:47:11.808Z,850.27
2023-08-10T14:49:41.491Z,850.27
2023-08-10T14:52:09.581Z,828.93
2023-08-10T14:54:37.621Z,929.00
2023-08-10T14:57:05.848Z,876.60
2023-08-10T14:59:33.907Z,888.97
2023-08-10T15:02:02.102Z,916.87
2023-08-10T15:04:30.262Z,933.83
2023-08-10T15:06:59.704Z,962.90
2023-08-10T15:09:27.767Z,928.27
2023-08-10T15:11:56.023Z,892.20
2023-08-10T15:14:24.103Z,932.80
2023-08-10T15:16:52.202Z,907.13
2023-08-10T15:19:20.247Z,905.63
2023-08-10T15:21:48.262Z,962.83
2023-08-10T15:24:17.686Z,926.77
2023-08-10T15:26:45.812Z,943.17
2023-08-10T15:29:13.855Z,856.27
2023-08-10T15:31:42.077Z,796.23
2023-08-10T15:34:10.190Z,785.93
2023-08-10T15:36:38.301Z,871.33
2023-08-10T15:39:06.610Z,873.00
2023-08-10T15:41:36.027Z,932.40
2023-08-10T15:44:04.150Z,944.73
2023-08-10T15:46:32.238Z,924.77
2023-08-10T15:49:00.305Z,869.33
2023-08-10T15:51:28.459Z,931.73
2023-08-10T15:53:56.774Z,959.77
2023-08-10T15:56:25.036Z,920.97
2023-08-10T15:58:55.523Z,919.07
2023-08-10T16:01:25.442Z,935.57
2023-08-10T16:03:53.717Z,967.67
2023-08-10T16:06:21.836Z,998.90
2023-08-10T16:08:49.874Z,924.20
2023-08-10T16:11:19.044Z,937.63
2023-08-10T16:13:47.125Z,986.03
2023-08-10T16:16:16.661Z,927.67
2023-08-10T16:18:44.820Z,875.93
2023-08-10T16:21:13.335Z,945.70
2023-08-10T16:23:41.647Z,908.33
2023-08-10T16:26:09.765Z,902.17
2023-08-10T16:28:38.008Z,891.37
2023-08-10T16:31:07.615Z,892.67
2023-08-10T16:33:37.143Z,866.50
2023-08-10T16:36:05.843Z,872.67
2023-08-10T16:38:34.243Z,837.87
2023-08-10T16:41:02.416Z,891.27
2023-08-10T16:43:30.444Z,857.77
2023-08-10T16:45:58.532Z,838.17
2023-08-10T16:48:26.608Z,643.83
2023-08-10T16:50:56.193Z,632.63
2023-08-10T16:53:24.982Z,523.07
2023-08-10T16:55:56.491Z,518.37
2023-08-10T16:58:24.934Z,496.60
2023-08-10T17:00:53.029Z,476.63
2023-08-10T17:03:21.254Z,452.30
2023-08-10T17:05:49.456Z,421.77
2023-08-10T17:08:20.201Z,361.87
2023-08-10T17:10:48.258Z,314.67
2023-08-10T17:13:16.343Z,350.53
2023-08-10T17:15:44.513Z,339.07
2023-08-10T17:18:12.621Z,345.07
2023-08-10T17:20:40.759Z,515.90
2023-08-10T17:23:08.985Z,240.27
2023-08-10T17:25:38.407Z,261.27
2023-08-10T17:28:08.670Z,269.90
2023-08-10T17:30:36.945Z,226.13
2023-08-10T17:33:05.383Z,152.93
2023-08-10T17:35:33.550Z,173.50
2023-08-10T17:38:01.651Z,165.97
2023-08-10T17:40:29.689Z,212.23
2023-08-10T17:42:59.166Z,170.57
2023-08-10T17:45:27.268Z,195.80
2023-08-10T17:47:55.362Z,179.80
2023-08-10T17:50:23.501Z,175.27
2023-08-10T17:52:51.783Z,164.63
2023-08-10T17:55:20.400Z,110.77
2023-08-10T17:57:50.249Z,151.40
2023-08-10T18:00:20.945Z,140.03
2023-08-10T18:02:53.842Z,124.70
2023-08-10T18:05:21.943Z,115.07
2023-08-10T18:07:50.128Z,67.47
2023-08-10T18:10:18.361Z,106.73
2023-08-10T18:12:46.416Z,73.27
2023-08-10T18:15:14.510Z,66.67
2023-08-10T18:17:43.932Z,72.40
2023-08-10T18:20:12.917Z,96.77
2023-08-10T18:22:40.968Z,69.70
2023-08-10T18:25:09.629Z,75.80
2023-08-10T18:27:37.878Z,68.63
2023-08-10T18:30:06.644Z,46.10
2023-08-10T18:32:34.853Z,53.43
2023-08-10T18:35:04.547Z,44.23
2023-08-10T18:37:32.624Z,31.23
2023-08-10T18:40:00.686Z,34.43
2023-08-10T18:42:28.758Z,31.57
2023-08-10T18:44:56.856Z,33.17
2023-08-10T18:47:25.070Z,29.70
2023-08-10T18:49:53.676Z,29.40
2023-08-10T18:52:23.208Z,26.93
2023-08-10T18:54:51.313Z,28.37
2023-08-10T18:57:19.356Z,23.37
2023-08-10T18:59:47.495Z,25.10
2023-08-10T19:02:15.766Z,21.27
2023-08-10T19:04:43.964Z,24.67
2023-08-10T19:07:13.655Z,15.83
2023-08-10T19:09:43.175Z,22.33
2023-08-10T19:12:11.387Z,21.00
2023-08-10T19:14:40.695Z,31.93
2023-08-10T19:17:09.187Z,12.03
2023-08-10T19:19:37.314Z,28.13
2023-08-10T19:22:05.792Z,59.50
2023-08-10T19:24:34.108Z,61.13
2023-08-10T19:27:03.572Z,55.63
2023-08-10T19:29:31.672Z,51.27
2023-08-10T19:31:59.773Z,52.63
2023-08-10T19:34:27.833Z,45.30
2023-08-10T19:36:56.321Z,48.60
2023-08-10T19:39:24.592Z,53.40
2023-08-10T19:41:52.962Z,51.17
2023-08-10T19:44:22.362Z,54.17
2023-08-10T19:46:50.408Z,50.13
2023-08-10T19:49:18.812Z,61.47
2023-08-10T19:51:47.287Z,62.23
2023-08-10T19:54:15.332Z,22.67
2023-08-10T19:56:43.373Z,54.93
2023-08-10T19:59:11.584Z,60.77
2023-08-10T20:01:41.105Z,54.00
2023-08-10T20:04:09.466Z,62.03
2023-08-10T20:06:37.586Z,58.13
2023-08-10T20:09:05.917Z,64.17
2023-08-10T20:11:33.997Z,59.93
2023-08-10T20:14:02.049Z,68.83
2023-08-10T20:16:30.172Z,29.07
2023-08-10T20:18:59.652Z,37.97
2023-08-10T20:21:27.753Z,65.73
2023-08-10T20:23:55.843Z,61.67
2023-08-10T20:26:25.459Z,56.53
2023-08-10T20:28:53.565Z,55.93
2023-08-10T20:31:23.109Z,56.20
2023-08-10T20:33:52.307Z,53.03
2023-08-10T20:36:21.948Z,57.87
2023-08-10T20:38:50.021Z,58.63
2023-08-10T20:41:18.606Z,58.13
2023-08-10T20:43:46.732Z,63.67
2023-08-10T20:46:22.665Z,54.17
2023-08-10T20:48:53.309Z,55.63
2023-08-10T20:51:23.123Z,60.73
2023-08-10T20:53:53.145Z,54.00
2023-08-10T20:56:22.032Z,51.80
2023-08-10T20:58:52.263Z,47.73
2023-08-10T21:01:21.240Z,47.00
2023-08-10T21:03:52.119Z,45.00
2023-08-10T21:06:23.221Z,51.77
2023-08-10T21:08:51.427Z,39.50
2023-08-10T21:11:19.505Z,40.67
2023-08-10T21:13:49.742Z,37.33
2023-08-10T21:16:18.253Z,32.43
2023-08-10T21:18:47.626Z,38.00
2023-08-10T21:21:15.762Z,34.23
2023-08-10T21:23:45.204Z,35.83
2023-08-10T21:26:13.280Z,34.97
2023-08-10T21:28:41.338Z,30.13
2023-08-10T21:31:09.441Z,33.53
2023-08-10T21:33:37.614Z,30.37
2023-08-10T21:36:06.238Z,33.27
2023-08-10T21:38:34.413Z,32.33
2023-08-10T21:41:03.881Z,23.07
2023-08-10T21:43:32.226Z,30.87
2023-08-10T21:46:00.370Z,26.90
2023-08-10T21:48:28.682Z,28.70
2023-08-10T21:50:56.787Z,28.10
2023-08-10T21:53:24.914Z,26.67
2023-08-10T21:55:53.042Z,33.90
2023-08-10T21:58:22.635Z,31.20
2023-08-10T22:00:50.796Z,27.37
2023-08-10T22:03:18.898Z,27.23
2023-08-10T22:05:48.572Z,26.67
2023-08-10T22:08:17.263Z,27.57
2023-08-10T22:10:45.456Z,27.10
2023-08-10T22:13:13.602Z,27.37
2023-08-10T22:15:43.085Z,25.57
2023-08-10T22:18:12.117Z,26.30
2023-08-10T22:20:40.929Z,24.37
2023-08-10T22:23:09.200Z,27.47
2023-08-10T22:25:37.540Z,26.33
2023-08-10T22:28:06.207Z,22.33
2023-08-10T22:30:35.569Z,23.93
2023-08-10T22:33:05.829Z,23.20
2023-08-10T22:35:33.998Z,25.23
2023-08-10T22:38:02.429Z,27.73
2023-08-10T22:40:31.059Z,22.53
2023-08-10T22:42:59.868Z,25.67
2023-08-10T22:45:27.948Z,24.90
2023-08-10T22:47:56.222Z,24.90
2023-08-10T22:50:26.824Z,28.87
2023-08-10T22:52:55.012Z,30.53
2023-08-10T22:55:23.112Z,21.40
2023-08-10T22:57:51.244Z,21.63
2023-08-10T23:00:19.678Z,22.23
2023-08-10T23:02:47.855Z,21.13
2023-08-10T23:05:16.070Z,19.80
2023-08-10T23:07:45.563Z,17.80
2023-08-10T23:10:13.637Z,21.27
2023-08-10T23:12:41.952Z,18.07
2023-08-10T23:15:11.115Z,20.23
2023-08-10T23:17:39.244Z,21.83
2023-08-10T23:20:12.803Z,20.90
2023-08-10T23:22:42.029Z,17.90
2023-08-10T23:25:14.104Z,17.27
2023-08-10T23:27:43.766Z,18.80
2023-08-10T23:30:13.345Z,16.37
2023-08-10T23:32:41.612Z,17.50
2023-08-10T23:35:11.353Z,11.87
2023-08-10T23:37:40.062Z,15.63
2023-08-10T23:40:11.472Z,16.27
2023-08-10T23:42:43.115Z,16.53
2023-08-10T23:45:13.423Z,14.43
2023-08-10T23:47:41.691Z,17.90
2023-08-10T23:50:10.931Z,15.70
2023-08-10T23:52:44.021Z,17.33
2023-08-10T23:55:12.307Z,18.27
2023-08-10T23:57:42.035Z,17.93
